sensor_id;sensor_type;location;lat;lon;timestamp;temperature;humidity
1592;DHT22;789;51.612;7.510;2023-06-22T00:00:02;24.50;1.00
1592;DHT22;789;51.612;7.510;2023-06-22T00:02:34;24.60;1.00
1592;DHT22;789;51.612;7.510;2023-06-22T00:05:00;24.60;1.00
1592;DHT22;789;51.612;7.510;2023-06-22T00:07:27;24.60;1.00
1592;DHT22;789;51.612;7.510;2023-06-22T00:09:55;24.50;1.00
1592;DHT22;789;51.612;7.510;2023-06-22T00:12:22;24.50;1.00
1592;DHT22;789;51.612;7.510;2023-06-22T00:14:52;24.50;1.00
1592;DHT22;789;51.612;7.510;2023-06-22T00:17:19;24.40;1.00
1592;DHT22;789;51.612;7.510;2023-06-22T00:19:47;24.50;1.00
1592;DHT22;789;51.612;7.510;2023-06-22T00:22:18;24.40;1.00
1592;DHT22;789;51.612;7.510;2023-06-22T00:24:47;24.40;1.00
1592;DHT22;789;51.612;7.510;2023-06-22T00:27:15;24.30;1.00
1592;DHT22;789;51.612;7.510;2023-06-22T00:29:42;24.30;1.00
1592;DHT22;789;51.612;7.510;2023-06-22T00:32:08;24.30;1.00
1592;DHT22;789;51.612;7.510;2023-06-22T00:34:35;24.30;1.00
1592;DHT22;789;51.612;7.510;2023-06-22T00:37:02;24.30;1.00
1592;DHT22;789;51.612;7.510;2023-06-22T00:39:29;24.20;1.00
1592;DHT22;789;51.612;7.510;2023-06-22T00:41:59;24.20;1.00
1592;DHT22;789;51.612;7.510;2023-06-22T00:44:27;24.20;1.00
1592;DHT22;789;51.612;7.510;2023-06-22T00:46:54;24.20;1.00
1592;DHT22;789;51.612;7.510;2023-06-22T00:49:21;24.20;1.00
1592;DHT22;789;51.612;7.510;2023-06-22T00:51:48;24.10;1.00
1592;DHT22;789;51.612;7.510;2023-06-22T00:54:15;24.10;1.00
1592;DHT22;789;51.612;7.510;2023-06-22T00:56:41;24.20;1.00
1592;DHT22;789;51.612;7.510;2023-06-22T00:59:09;24.00;1.00
1592;DHT22;789;51.612;7.510;2023-06-22T01:01:39;24.00;1.00
1592;DHT22;789;51.612;7.510;2023-06-22T01:04:06;24.00;1.00
1592;DHT22;789;51.612;7.510;2023-06-22T01:06:38;23.90;1.00
1592;DHT22;789;51.612;7.510;2023-06-22T01:09:10;24.00;1.00
1592;DHT22;789;51.612;7.510;2023-06-22T01:11:44;23.90;1.00
1592;DHT22;789;51.612;7.510;2023-06-22T01:14:15;23.90;1.00
1592;DHT22;789;51.612;7.510;2023-06-22T01:16:47;23.90;1.00
1592;DHT22;789;51.612;7.510;2023-06-22T01:19:25;23.90;1.00
1592;DHT22;789;51.612;7.510;2023-06-22T01:21:56;23.80;1.00
1592;DHT22;789;51.612;7.510;2023-06-22T01:24:30;23.80;1.00
1592;DHT22;789;51.612;7.510;2023-06-22T01:27:15;23.70;1.00
1592;DHT22;789;51.612;7.510;2023-06-22T01:29:49;23.70;1.00
1592;DHT22;789;51.612;7.510;2023-06-22T01:32:17;23.70;1.00
1592;DHT22;789;51.612;7.510;2023-06-22T01:34:45;23.60;1.00
1592;DHT22;789;51.612;7.510;2023-06-22T01:37:12;23.60;1.00
1592;DHT22;789;51.612;7.510;2023-06-22T01:39:40;23.60;1.00
1592;DHT22;789;51.612;7.510;2023-06-22T01:42:07;23.60;1.00
1592;DHT22;789;51.612;7.510;2023-06-22T01:44:34;23.60;1.00
1592;DHT22;789;51.612;7.510;2023-06-22T01:47:03;23.50;1.00
1592;DHT22;789;51.612;7.510;2023-06-22T01:49:30;23.50;1.00
1592;DHT22;789;51.612;7.510;2023-06-22T01:51:57;23.50;1.00
1592;DHT22;789;51.612;7.510;2023-06-22T01:54:24;23.50;1.00
1592;DHT22;789;51.612;7.510;2023-06-22T01:56:51;23.50;1.00
1592;DHT22;789;51.612;7.510;2023-06-22T01:59:25;23.50;1.00
1592;DHT22;789;51.612;7.510;2023-06-22T02:01:57;23.40;1.00
1592;DHT22;789;51.612;7.510;2023-06-22T02:04:34;23.40;1.00
1592;DHT22;789;51.612;7.510;2023-06-22T02:07:07;23.40;1.00
1592;DHT22;789;51.612;7.510;2023-06-22T02:09:37;23.40;1.00
1592;DHT22;789;51.612;7.510;2023-06-22T02:12:07;23.40;1.00
1592;DHT22;789;51.612;7.510;2023-06-22T02:14:35;23.40;1.00
1592;DHT22;789;51.612;7.510;2023-06-22T02:17:03;23.40;1.00
1592;DHT22;789;51.612;7.510;2023-06-22T02:19:36;23.40;1.00
1592;DHT22;789;51.612;7.510;2023-06-22T02:22:03;23.40;1.00
1592;DHT22;789;51.612;7.510;2023-06-22T02:24:30;23.40;1.00
1592;DHT22;789;51.612;7.510;2023-06-22T02:26:59;23.40;1.00
1592;DHT22;789;51.612;7.510;2023-06-22T02:29:26;23.30;1.00
1592;DHT22;789;51.612;7.510;2023-06-22T02:31:53;23.30;1.00
1592;DHT22;789;51.612;7.510;2023-06-22T02:34:21;23.30;1.00
1592;DHT22;789;51.612;7.510;2023-06-22T02:36:49;23.30;1.00
1592;DHT22;789;51.612;7.510;2023-06-22T02:39:21;23.30;1.00
1592;DHT22;789;51.612;7.510;2023-06-22T02:41:49;23.40;1.00
1592;DHT22;789;51.612;7.510;2023-06-22T02:44:15;23.20;1.00
1592;DHT22;789;51.612;7.510;2023-06-22T02:46:43;23.20;1.00
1592;DHT22;789;51.612;7.510;2023-06-22T02:49:10;23.10;1.00
1592;DHT22;789;51.612;7.510;2023-06-22T02:51:39;23.10;1.00
1592;DHT22;789;51.612;7.510;2023-06-22T02:54:07;23.10;1.00
1592;DHT22;789;51.612;7.510;2023-06-22T02:56:34;23.00;1.00
1592;DHT22;789;51.612;7.510;2023-06-22T02:59:03;23.00;1.00
1592;DHT22;789;51.612;7.510;2023-06-22T03:01:30;23.00;1.00
1592;DHT22;789;51.612;7.510;2023-06-22T03:04:03;23.00;1.00
1592;DHT22;789;51.612;7.510;2023-06-22T03:06:30;22.90;1.00
1592;DHT22;789;51.612;7.510;2023-06-22T03:08:59;22.90;1.00
1592;DHT22;789;51.612;7.510;2023-06-22T03:11:28;22.80;1.00
1592;DHT22;789;51.612;7.510;2023-06-22T03:13:55;22.80;1.00
1592;DHT22;789;51.612;7.510;2023-06-22T03:16:21;22.80;1.00
1592;DHT22;789;51.612;7.510;2023-06-22T03:18:48;22.80;1.00
1592;DHT22;789;51.612;7.510;2023-06-22T03:21:18;22.70;1.00
1592;DHT22;789;51.612;7.510;2023-06-22T03:23:45;22.60;1.00
1592;DHT22;789;51.612;7.510;2023-06-22T03:26:11;22.70;1.00
1592;DHT22;789;51.612;7.510;2023-06-22T03:28:40;22.70;1.00
1592;DHT22;789;51.612;7.510;2023-06-22T03:31:06;22.60;1.00
1592;DHT22;789;51.612;7.510;2023-06-22T03:33:33;22.60;1.00
1592;DHT22;789;51.612;7.510;2023-06-22T03:36:00;22.60;1.00
1592;DHT22;789;51.612;7.510;2023-06-22T03:38:27;22.60;1.00
1592;DHT22;789;51.612;7.510;2023-06-22T03:40:54;22.50;1.00
1592;DHT22;789;51.612;7.510;2023-06-22T03:43:22;22.50;1.00
1592;DHT22;789;51.612;7.510;2023-06-22T03:45:50;22.50;1.00
1592;DHT22;789;51.612;7.510;2023-06-22T03:48:17;22.50;1.00
1592;DHT22;789;51.612;7.510;2023-06-22T03:50:45;22.40;1.00
1592;DHT22;789;51.612;7.510;2023-06-22T03:53:12;22.40;1.00
1592;DHT22;789;51.612;7.510;2023-06-22T03:55:45;22.40;1.00
1592;DHT22;789;51.612;7.510;2023-06-22T03:58:14;22.40;1.00
1592;DHT22;789;51.612;7.510;2023-06-22T04:00:40;22.40;1.00
1592;DHT22;789;51.612;7.510;2023-06-22T04:03:08;22.40;1.00
1592;DHT22;789;51.612;7.510;2023-06-22T04:05:38;22.50;1.00
1592;DHT22;789;51.612;7.510;2023-06-22T04:08:05;22.50;1.00
1592;DHT22;789;51.612;7.510;2023-06-22T04:10:31;22.50;1.00
1592;DHT22;789;51.612;7.510;2023-06-22T04:12:58;22.50;1.00
1592;DHT22;789;51.612;7.510;2023-06-22T04:15:25;22.60;1.00
1592;DHT22;789;51.612;7.510;2023-06-22T04:17:52;22.60;1.00
1592;DHT22;789;51.612;7.510;2023-06-22T04:20:21;22.70;1.00
1592;DHT22;789;51.612;7.510;2023-06-22T04:22:51;22.70;1.00
1592;DHT22;789;51.612;7.510;2023-06-22T04:25:18;22.70;1.00
1592;DHT22;789;51.612;7.510;2023-06-22T04:27:45;22.80;1.00
1592;DHT22;789;51.612;7.510;2023-06-22T04:30:12;22.80;1.00
1592;DHT22;789;51.612;7.510;2023-06-22T04:32:42;22.80;1.00
1592;DHT22;789;51.612;7.510;2023-06-22T04:35:09;22.90;1.00
1592;DHT22;789;51.612;7.510;2023-06-22T04:37:38;23.00;1.00
1592;DHT22;789;51.612;7.510;2023-06-22T04:40:06;23.00;1.00
1592;DHT22;789;51.612;7.510;2023-06-22T04:42:34;23.10;1.00
1592;DHT22;789;51.612;7.510;2023-06-22T04:45:01;23.20;1.00
1592;DHT22;789;51.612;7.510;2023-06-22T04:47:28;23.20;1.00
1592;DHT22;789;51.612;7.510;2023-06-22T04:49:55;23.20;1.00
1592;DHT22;789;51.612;7.510;2023-06-22T04:52:22;23.20;1.00
1592;DHT22;789;51.612;7.510;2023-06-22T04:54:52;23.20;1.00
1592;DHT22;789;51.612;7.510;2023-06-22T04:57:21;23.20;1.00
1592;DHT22;789;51.612;7.510;2023-06-22T04:59:58;23.20;1.00
1592;DHT22;789;51.612;7.510;2023-06-22T05:02:40;23.20;1.00
1592;DHT22;789;51.612;7.510;2023-06-22T05:05:07;23.20;1.00
1592;DHT22;789;51.612;7.510;2023-06-22T05:07:39;23.20;1.00
1592;DHT22;789;51.612;7.510;2023-06-22T05:10:10;23.20;1.00
1592;DHT22;789;51.612;7.510;2023-06-22T05:12:38;23.40;1.00
1592;DHT22;789;51.612;7.510;2023-06-22T05:15:06;23.20;1.00
1592;DHT22;789;51.612;7.510;2023-06-22T05:17:33;23.10;1.00
1592;DHT22;789;51.612;7.510;2023-06-22T05:20:00;23.00;1.00
1592;DHT22;789;51.612;7.510;2023-06-22T05:22:27;22.90;1.00
1592;DHT22;789;51.612;7.510;2023-06-22T05:24:54;22.80;1.00
1592;DHT22;789;51.612;7.510;2023-06-22T05:27:22;22.80;1.00
1592;DHT22;789;51.612;7.510;2023-06-22T05:29:49;22.80;1.00
1592;DHT22;789;51.612;7.510;2023-06-22T05:32:16;22.80;1.00
1592;DHT22;789;51.612;7.510;2023-06-22T05:34:44;22.80;1.00
1592;DHT22;789;51.612;7.510;2023-06-22T05:37:10;22.80;1.00
1592;DHT22;789;51.612;7.510;2023-06-22T05:39:38;22.80;1.00
1592;DHT22;789;51.612;7.510;2023-06-22T05:42:05;22.60;1.00
1592;DHT22;789;51.612;7.510;2023-06-22T05:44:33;22.60;1.00
1592;DHT22;789;51.612;7.510;2023-06-22T05:47:00;22.60;1.00
1592;DHT22;789;51.612;7.510;2023-06-22T05:49:28;22.50;1.00
1592;DHT22;789;51.612;7.510;2023-06-22T05:51:58;22.50;1.00
1592;DHT22;789;51.612;7.510;2023-06-22T05:54:25;22.70;1.00
1592;DHT22;789;51.612;7.510;2023-06-22T05:56:51;22.60;1.00
1592;DHT22;789;51.612;7.510;2023-06-22T05:59:20;22.80;1.00
1592;DHT22;789;51.612;7.510;2023-06-22T06:01:48;22.90;1.00
1592;DHT22;789;51.612;7.510;2023-06-22T06:04:16;23.00;1.00
1592;DHT22;789;51.612;7.510;2023-06-22T06:06:43;23.10;1.00
1592;DHT22;789;51.612;7.510;2023-06-22T06:09:10;23.20;1.00
1592;DHT22;789;51.612;7.510;2023-06-22T06:11:37;23.20;1.00
1592;DHT22;789;51.612;7.510;2023-06-22T06:14:04;23.30;1.00
1592;DHT22;789;51.612;7.510;2023-06-22T06:16:31;23.30;1.00
1592;DHT22;789;51.612;7.510;2023-06-22T06:19:00;23.40;1.00
1592;DHT22;789;51.612;7.510;2023-06-22T06:21:26;23.50;1.00
1592;DHT22;789;51.612;7.510;2023-06-22T06:23:53;23.50;1.00
1592;DHT22;789;51.612;7.510;2023-06-22T06:26:20;23.50;1.00
1592;DHT22;789;51.612;7.510;2023-06-22T06:28:56;23.60;1.00
1592;DHT22;789;51.612;7.510;2023-06-22T06:31:23;23.60;1.00
1592;DHT22;789;51.612;7.510;2023-06-22T06:33:50;23.60;1.00
1592;DHT22;789;51.612;7.510;2023-06-22T06:36:18;23.70;1.00
1592;DHT22;789;51.612;7.510;2023-06-22T06:38:45;23.80;1.00
1592;DHT22;789;51.612;7.510;2023-06-22T06:41:15;23.80;1.00
1592;DHT22;789;51.612;7.510;2023-06-22T06:43:43;23.80;1.00
1592;DHT22;789;51.612;7.510;2023-06-22T06:46:10;23.90;1.00
1592;DHT22;789;51.612;7.510;2023-06-22T06:48:36;23.90;1.00
1592;DHT22;789;51.612;7.510;2023-06-22T06:51:03;23.90;1.00
1592;DHT22;789;51.612;7.510;2023-06-22T06:53:31;23.90;1.00
1592;DHT22;789;51.612;7.510;2023-06-22T06:55:58;23.90;1.00
1592;DHT22;789;51.612;7.510;2023-06-22T06:58:26;23.90;1.00
1592;DHT22;789;51.612;7.510;2023-06-22T07:00:53;23.90;1.00
1592;DHT22;789;51.612;7.510;2023-06-22T07:03:20;23.90;1.00
1592;DHT22;789;51.612;7.510;2023-06-22T07:05:47;23.90;1.00
1592;DHT22;789;51.612;7.510;2023-06-22T07:08:14;24.00;1.00
1592;DHT22;789;51.612;7.510;2023-06-22T07:10:45;24.10;1.00
1592;DHT22;789;51.612;7.510;2023-06-22T07:13:11;24.20;1.00
1592;DHT22;789;51.612;7.510;2023-06-22T07:15:38;24.30;1.00
1592;DHT22;789;51.612;7.510;2023-06-22T07:18:05;24.40;1.00
1592;DHT22;789;51.612;7.510;2023-06-22T07:20:35;24.40;1.00
1592;DHT22;789;51.612;7.510;2023-06-22T07:23:02;24.40;1.00
1592;DHT22;789;51.612;7.510;2023-06-22T07:25:29;24.40;1.00
1592;DHT22;789;51.612;7.510;2023-06-22T07:28:03;24.40;1.00
1592;DHT22;789;51.612;7.510;2023-06-22T07:30:31;24.40;1.00
1592;DHT22;789;51.612;7.510;2023-06-22T07:32:58;24.40;1.00
1592;DHT22;789;51.612;7.510;2023-06-22T07:35:29;24.30;1.00
1592;DHT22;789;51.612;7.510;2023-06-22T07:37:55;24.30;1.00
1592;DHT22;789;51.612;7.510;2023-06-22T07:40:22;24.30;1.00
1592;DHT22;789;51.612;7.510;2023-06-22T07:42:49;24.30;1.00
1592;DHT22;789;51.612;7.510;2023-06-22T07:45:21;24.30;1.00
1592;DHT22;789;51.612;7.510;2023-06-22T07:47:48;24.20;1.00
1592;DHT22;789;51.612;7.510;2023-06-22T07:50:14;24.20;1.00
1592;DHT22;789;51.612;7.510;2023-06-22T07:52:41;24.20;1.00
1592;DHT22;789;51.612;7.510;2023-06-22T07:55:08;24.20;1.00
1592;DHT22;789;51.612;7.510;2023-06-22T07:57:35;24.20;1.00
1592;DHT22;789;51.612;7.510;2023-06-22T08:00:04;24.40;1.00
1592;DHT22;789;51.612;7.510;2023-06-22T08:02:39;24.40;1.00
1592;DHT22;789;51.612;7.510;2023-06-22T08:05:07;24.40;1.00
1592;DHT22;789;51.612;7.510;2023-06-22T08:07:34;24.50;1.00
1592;DHT22;789;51.612;7.510;2023-06-22T08:10:02;24.50;1.00
1592;DHT22;789;51.612;7.510;2023-06-22T08:12:29;24.50;1.00
1592;DHT22;789;51.612;7.510;2023-06-22T08:14:56;24.60;1.00
1592;DHT22;789;51.612;7.510;2023-06-22T08:17:23;24.60;1.00
1592;DHT22;789;51.612;7.510;2023-06-22T08:19:51;24.70;1.00
1592;DHT22;789;51.612;7.510;2023-06-22T08:22:17;24.80;1.00
1592;DHT22;789;51.612;7.510;2023-06-22T08:24:44;24.90;1.00
1592;DHT22;789;51.612;7.510;2023-06-22T08:27:11;25.10;1.00
1592;DHT22;789;51.612;7.510;2023-06-22T08:29:38;25.20;1.00
1592;DHT22;789;51.612;7.510;2023-06-22T08:32:08;25.30;1.00
1592;DHT22;789;51.612;7.510;2023-06-22T08:34:35;25.40;1.00
1592;DHT22;789;51.612;7.510;2023-06-22T08:37:03;25.50;1.00
1592;DHT22;789;51.612;7.510;2023-06-22T08:39:31;25.70;1.00
1592;DHT22;789;51.612;7.510;2023-06-22T08:41:58;25.70;1.00
1592;DHT22;789;51.612;7.510;2023-06-22T08:44:27;25.90;1.00
1592;DHT22;789;51.612;7.510;2023-06-22T08:46:54;26.00;1.00
1592;DHT22;789;51.612;7.510;2023-06-22T08:49:21;26.20;1.00
1592;DHT22;789;51.612;7.510;2023-06-22T08:51:48;26.40;1.00
1592;DHT22;789;51.612;7.510;2023-06-22T08:54:16;26.50;1.00
1592;DHT22;789;51.612;7.510;2023-06-22T08:56:43;27.20;1.00
1592;DHT22;789;51.612;7.510;2023-06-22T08:59:10;28.10;1.00
1592;DHT22;789;51.612;7.510;2023-06-22T09:01:37;29.20;1.00
1592;DHT22;789;51.612;7.510;2023-06-22T09:04:04;29.70;1.00
1592;DHT22;789;51.612;7.510;2023-06-22T09:06:34;29.90;1.00
1592;DHT22;789;51.612;7.510;2023-06-22T09:09:06;30.20;1.00
1592;DHT22;789;51.612;7.510;2023-06-22T09:11:34;31.00;1.00
1592;DHT22;789;51.612;7.510;2023-06-22T09:14:01;31.80;1.00
1592;DHT22;789;51.612;7.510;2023-06-22T09:16:29;32.50;1.00
1592;DHT22;789;51.612;7.510;2023-06-22T09:18:56;32.70;1.00
1592;DHT22;789;51.612;7.510;2023-06-22T09:21:25;32.70;1.00
1592;DHT22;789;51.612;7.510;2023-06-22T09:23:52;32.80;1.00
1592;DHT22;789;51.612;7.510;2023-06-22T09:26:19;33.50;1.00
1592;DHT22;789;51.612;7.510;2023-06-22T09:28:47;34.70;1.00
1592;DHT22;789;51.612;7.510;2023-06-22T09:31:14;35.50;1.00
1592;DHT22;789;51.612;7.510;2023-06-22T09:33:42;35.70;1.00
1592;DHT22;789;51.612;7.510;2023-06-22T09:36:09;35.40;1.00
1592;DHT22;789;51.612;7.510;2023-06-22T09:38:36;35.10;1.00
1592;DHT22;789;51.612;7.510;2023-06-22T09:41:03;34.50;1.00
1592;DHT22;789;51.612;7.510;2023-06-22T09:43:32;34.10;1.00
1592;DHT22;789;51.612;7.510;2023-06-22T09:46:01;34.00;1.00
1592;DHT22;789;51.612;7.510;2023-06-22T09:48:28;34.40;1.00
1592;DHT22;789;51.612;7.510;2023-06-22T09:50:56;34.70;1.00
1592;DHT22;789;51.612;7.510;2023-06-22T09:53:23;35.20;1.00
1592;DHT22;789;51.612;7.510;2023-06-22T09:55:50;35.70;1.00
1592;DHT22;789;51.612;7.510;2023-06-22T09:58:16;36.20;1.00
1592;DHT22;789;51.612;7.510;2023-06-22T10:00:43;36.90;1.00
1592;DHT22;789;51.612;7.510;2023-06-22T10:03:11;38.10;1.00
1592;DHT22;789;51.612;7.510;2023-06-22T10:05:38;39.00;1.00
1592;DHT22;789;51.612;7.510;2023-06-22T10:08:05;39.40;1.00
1592;DHT22;789;51.612;7.510;2023-06-22T10:10:33;39.20;1.00
1592;DHT22;789;51.612;7.510;2023-06-22T10:13:07;38.50;1.00
1592;DHT22;789;51.612;7.510;2023-06-22T10:15:34;37.90;1.00
1592;DHT22;789;51.612;7.510;2023-06-22T10:18:01;37.10;1.00
1592;DHT22;789;51.612;7.510;2023-06-22T10:20:29;36.50;1.00
1592;DHT22;789;51.612;7.510;2023-06-22T10:22:56;36.00;1.00
1592;DHT22;789;51.612;7.510;2023-06-22T10:25:22;35.50;1.00
1592;DHT22;789;51.612;7.510;2023-06-22T10:27:50;34.80;1.00
1592;DHT22;789;51.612;7.510;2023-06-22T10:30:17;34.20;1.00
1592;DHT22;789;51.612;7.510;2023-06-22T10:32:43;33.60;1.00
1592;DHT22;789;51.612;7.510;2023-06-22T10:35:10;33.10;1.00
1592;DHT22;789;51.612;7.510;2023-06-22T10:37:40;32.60;1.00
1592;DHT22;789;51.612;7.510;2023-06-22T10:40:09;31.90;1.00
1592;DHT22;789;51.612;7.510;2023-06-22T10:42:36;31.60;1.00
1592;DHT22;789;51.612;7.510;2023-06-22T10:45:03;31.40;1.00
1592;DHT22;789;51.612;7.510;2023-06-22T10:47:30;31.30;1.00
1592;DHT22;789;51.612;7.510;2023-06-22T10:49:57;31.20;1.00
1592;DHT22;789;51.612;7.510;2023-06-22T10:52:23;31.20;1.00
1592;DHT22;789;51.612;7.510;2023-06-22T10:54:52;31.30;1.00
1592;DHT22;789;51.612;7.510;2023-06-22T10:57:22;31.40;1.00
1592;DHT22;789;51.612;7.510;2023-06-22T10:59:49;31.70;1.00
1592;DHT22;789;51.612;7.510;2023-06-22T11:02:16;31.90;1.00
1592;DHT22;789;51.612;7.510;2023-06-22T11:04:42;32.00;1.00
1592;DHT22;789;51.612;7.510;2023-06-22T11:07:09;32.10;1.00
1592;DHT22;789;51.612;7.510;2023-06-22T11:09:36;32.90;1.00
1592;DHT22;789;51.612;7.510;2023-06-22T11:12:07;33.40;1.00
1592;DHT22;789;51.612;7.510;2023-06-22T11:14:33;34.10;1.00
1592;DHT22;789;51.612;7.510;2023-06-22T11:17:01;34.60;1.00
1592;DHT22;789;51.612;7.510;2023-06-22T11:19:30;34.90;1.00
1592;DHT22;789;51.612;7.510;2023-06-22T11:21:57;34.70;1.00
1592;DHT22;789;51.612;7.510;2023-06-22T11:24:24;34.20;1.00
1592;DHT22;789;51.612;7.510;2023-06-22T11:26:51;33.50;1.00
1592;DHT22;789;51.612;7.510;2023-06-22T11:29:19;32.80;1.00
1592;DHT22;789;51.612;7.510;2023-06-22T11:31:47;32.20;1.00
1592;DHT22;789;51.612;7.510;2023-06-22T11:34:14;31.60;1.00
1592;DHT22;789;51.612;7.510;2023-06-22T11:36:41;31.10;1.00
1592;DHT22;789;51.612;7.510;2023-06-22T11:39:08;30.70;1.00
1592;DHT22;789;51.612;7.510;2023-06-22T11:41:35;30.40;1.00
1592;DHT22;789;51.612;7.510;2023-06-22T11:44:02;30.10;1.00
1592;DHT22;789;51.612;7.510;2023-06-22T11:46:32;29.80;1.00
1592;DHT22;789;51.612;7.510;2023-06-22T11:49:01;29.50;1.00
1592;DHT22;789;51.612;7.510;2023-06-22T11:51:28;29.00;1.00
1592;DHT22;789;51.612;7.510;2023-06-22T11:53:57;28.50;1.00
1592;DHT22;789;51.612;7.510;2023-06-22T11:56:24;27.80;1.00
1592;DHT22;789;51.612;7.510;2023-06-22T11:58:51;27.20;1.00
1592;DHT22;789;51.612;7.510;2023-06-22T12:01:17;26.60;1.00
1592;DHT22;789;51.612;7.510;2023-06-22T12:03:45;26.30;1.00
1592;DHT22;789;51.612;7.510;2023-06-22T12:06:13;26.00;1.00
1592;DHT22;789;51.612;7.510;2023-06-22T12:08:40;25.80;1.00
1592;DHT22;789;51.612;7.510;2023-06-22T12:11:07;25.70;1.00
1592;DHT22;789;51.612;7.510;2023-06-22T12:13:33;25.70;1.00
1592;DHT22;789;51.612;7.510;2023-06-22T12:16:00;25.60;1.00
1592;DHT22;789;51.612;7.510;2023-06-22T12:18:27;25.70;1.00
1592;DHT22;789;51.612;7.510;2023-06-22T12:20:55;25.60;1.00
1592;DHT22;789;51.612;7.510;2023-06-22T12:23:22;25.60;1.00
1592;DHT22;789;51.612;7.510;2023-06-22T12:25:49;25.60;1.00
1592;DHT22;789;51.612;7.510;2023-06-22T12:28:16;25.60;1.00
1592;DHT22;789;51.612;7.510;2023-06-22T12:30:42;25.60;1.00
1592;DHT22;789;51.612;7.510;2023-06-22T12:33:09;25.60;1.00
1592;DHT22;789;51.612;7.510;2023-06-22T12:35:38;25.50;1.00
1592;DHT22;789;51.612;7.510;2023-06-22T12:38:06;25.50;1.00
1592;DHT22;789;51.612;7.510;2023-06-22T12:40:33;25.40;1.00
1592;DHT22;789;51.612;7.510;2023-06-22T12:43:00;25.50;1.00
1592;DHT22;789;51.612;7.510;2023-06-22T12:45:27;25.30;1.00
1592;DHT22;789;51.612;7.510;2023-06-22T12:47:57;25.20;1.00
1592;DHT22;789;51.612;7.510;2023-06-22T12:50:25;25.10;1.00
1592;DHT22;789;51.612;7.510;2023-06-22T12:52:51;25.10;1.00
1592;DHT22;789;51.612;7.510;2023-06-22T12:55:19;25.10;1.00
1592;DHT22;789;51.612;7.510;2023-06-22T12:57:46;25.10;1.00
1592;DHT22;789;51.612;7.510;2023-06-22T13:00:16;25.00;1.00
1592;DHT22;789;51.612;7.510;2023-06-22T13:02:43;24.90;1.00
1592;DHT22;789;51.612;7.510;2023-06-22T13:05:10;24.70;1.00
1592;DHT22;789;51.612;7.510;2023-06-22T13:07:37;24.60;1.00
1592;DHT22;789;51.612;7.510;2023-06-22T13:10:05;24.40;1.00
1592;DHT22;789;51.612;7.510;2023-06-22T13:12:34;24.30;1.00
1592;DHT22;789;51.612;7.510;2023-06-22T13:15:00;24.30;1.00
1592;DHT22;789;51.612;7.510;2023-06-22T13:17:28;24.30;1.00
1592;DHT22;789;51.612;7.510;2023-06-22T13:19:58;24.40;1.00
1592;DHT22;789;51.612;7.510;2023-06-22T13:22:27;24.50;1.00
1592;DHT22;789;51.612;7.510;2023-06-22T13:24:54;24.70;1.00
1592;DHT22;789;51.612;7.510;2023-06-22T13:27:21;24.80;1.00
1592;DHT22;789;51.612;7.510;2023-06-22T13:29:52;25.10;1.00
1592;DHT22;789;51.612;7.510;2023-06-22T13:32:19;25.40;1.00
1592;DHT22;789;51.612;7.510;2023-06-22T13:34:46;25.60;1.00
1592;DHT22;789;51.612;7.510;2023-06-22T13:37:13;25.90;1.00
1592;DHT22;789;51.612;7.510;2023-06-22T13:39:39;26.10;1.00
1592;DHT22;789;51.612;7.510;2023-06-22T13:42:07;26.30;1.00
1592;DHT22;789;51.612;7.510;2023-06-22T13:44:34;26.40;1.00
1592;DHT22;789;51.612;7.510;2023-06-22T13:47:02;26.60;1.00
1592;DHT22;789;51.612;7.510;2023-06-22T13:49:30;26.80;1.00
1592;DHT22;789;51.612;7.510;2023-06-22T13:51:56;26.80;1.00
1592;DHT22;789;51.612;7.510;2023-06-22T13:54:23;26.90;1.00
1592;DHT22;789;51.612;7.510;2023-06-22T13:56:50;27.00;1.00
1592;DHT22;789;51.612;7.510;2023-06-22T13:59:17;27.10;1.00
1592;DHT22;789;51.612;7.510;2023-06-22T14:01:45;27.10;1.00
1592;DHT22;789;51.612;7.510;2023-06-22T14:04:13;27.00;1.00
1592;DHT22;789;51.612;7.510;2023-06-22T14:06:40;27.00;1.00
1592;DHT22;789;51.612;7.510;2023-06-22T14:09:07;26.90;1.00
1592;DHT22;789;51.612;7.510;2023-06-22T14:11:35;26.90;1.00
1592;DHT22;789;51.612;7.510;2023-06-22T14:14:02;26.80;1.00
1592;DHT22;789;51.612;7.510;2023-06-22T14:16:29;26.70;1.00
1592;DHT22;789;51.612;7.510;2023-06-22T14:18:56;26.60;1.00
1592;DHT22;789;51.612;7.510;2023-06-22T14:21:31;26.50;1.00
1592;DHT22;789;51.612;7.510;2023-06-22T14:23:58;26.40;1.00
1592;DHT22;789;51.612;7.510;2023-06-22T14:26:25;26.20;1.00
1592;DHT22;789;51.612;7.510;2023-06-22T14:28:52;26.10;1.00
1592;DHT22;789;51.612;7.510;2023-06-22T14:31:22;26.10;1.00
1592;DHT22;789;51.612;7.510;2023-06-22T14:33:49;26.00;1.00
1592;DHT22;789;51.612;7.510;2023-06-22T14:36:16;26.00;1.00
1592;DHT22;789;51.612;7.510;2023-06-22T14:38:45;26.00;1.00
1592;DHT22;789;51.612;7.510;2023-06-22T14:41:11;26.00;1.00
1592;DHT22;789;51.612;7.510;2023-06-22T14:43:44;26.00;1.00
1592;DHT22;789;51.612;7.510;2023-06-22T14:46:12;26.00;1.00
1592;DHT22;789;51.612;7.510;2023-06-22T14:48:39;26.00;1.00
1592;DHT22;789;51.612;7.510;2023-06-22T14:51:05;26.10;1.00
1592;DHT22;789;51.612;7.510;2023-06-22T14:53:32;26.10;1.00
1592;DHT22;789;51.612;7.510;2023-06-22T14:56:01;26.10;1.00
1592;DHT22;789;51.612;7.510;2023-06-22T14:58:28;26.00;1.00
1592;DHT22;789;51.612;7.510;2023-06-22T15:00:57;26.00;1.00
1592;DHT22;789;51.612;7.510;2023-06-22T15:03:23;25.90;1.00
1592;DHT22;789;51.612;7.510;2023-06-22T15:05:53;25.90;1.00
1592;DHT22;789;51.612;7.510;2023-06-22T15:08:21;25.90;1.00
1592;DHT22;789;51.612;7.510;2023-06-22T15:10:48;25.90;1.00
1592;DHT22;789;51.612;7.510;2023-06-22T15:13:16;25.90;1.00
1592;DHT22;789;51.612;7.510;2023-06-22T15:15:43;25.90;1.00
1592;DHT22;789;51.612;7.510;2023-06-22T15:18:10;25.80;1.00
1592;DHT22;789;51.612;7.510;2023-06-22T15:20:38;25.80;1.00
1592;DHT22;789;51.612;7.510;2023-06-22T15:23:06;25.90;1.00
1592;DHT22;789;51.612;7.510;2023-06-22T15:25:34;25.90;1.00
1592;DHT22;789;51.612;7.510;2023-06-22T15:28:00;25.90;1.00
1592;DHT22;789;51.612;7.510;2023-06-22T15:30:29;25.80;1.00
1592;DHT22;789;51.612;7.510;2023-06-22T15:32:56;25.80;1.00
1592;DHT22;789;51.612;7.510;2023-06-22T15:35:23;25.70;1.00
1592;DHT22;789;51.612;7.510;2023-06-22T15:37:50;25.60;1.00
1592;DHT22;789;51.612;7.510;2023-06-22T15:40:17;25.50;1.00
1592;DHT22;789;51.612;7.510;2023-06-22T15:42:44;25.30;1.00
1592;DHT22;789;51.612;7.510;2023-06-22T15:45:13;25.20;1.00
1592;DHT22;789;51.612;7.510;2023-06-22T15:47:41;25.20;1.00
1592;DHT22;789;51.612;7.510;2023-06-22T15:50:08;25.00;1.00
1592;DHT22;789;51.612;7.510;2023-06-22T15:52:35;25.00;1.00
1592;DHT22;789;51.612;7.510;2023-06-22T15:55:02;24.90;1.00
1592;DHT22;789;51.612;7.510;2023-06-22T15:57:29;24.80;1.00
1592;DHT22;789;51.612;7.510;2023-06-22T15:59:56;24.80;1.00
1592;DHT22;789;51.612;7.510;2023-06-22T16:02:23;24.70;1.00
1592;DHT22;789;51.612;7.510;2023-06-22T16:04:53;24.60;1.00
1592;DHT22;789;51.612;7.510;2023-06-22T16:07:22;24.40;1.00
1592;DHT22;789;51.612;7.510;2023-06-22T16:09:49;24.30;1.00
1592;DHT22;789;51.612;7.510;2023-06-22T16:12:16;24.10;1.00
1592;DHT22;789;51.612;7.510;2023-06-22T16:14:43;24.10;1.00
1592;DHT22;789;51.612;7.510;2023-06-22T16:17:10;24.10;1.00
1592;DHT22;789;51.612;7.510;2023-06-22T16:19:37;24.00;1.00
1592;DHT22;789;51.612;7.510;2023-06-22T16:22:05;23.90;1.00
1592;DHT22;789;51.612;7.510;2023-06-22T16:24:32;23.90;1.00
1592;DHT22;789;51.612;7.510;2023-06-22T16:26:59;23.90;1.00
1592;DHT22;789;51.612;7.510;2023-06-22T16:29:26;23.90;1.00
1592;DHT22;789;51.612;7.510;2023-06-22T16:31:53;23.90;1.00
1592;DHT22;789;51.612;7.510;2023-06-22T16:34:20;23.80;1.00
1592;DHT22;789;51.612;7.510;2023-06-22T16:36:48;23.70;1.00